sensor_id;sensor_type;location;lat;lon;timestamp;pressure;altitude;pressure_sealevel;temperature;humidity
35848;BME280;22332;51.954;20.118;2023-08-21T00:02:15;100581.98;;;22.82;76.85
35848;BME280;22332;51.954;20.118;2023-08-21T00:05:20;100580.44;;;22.83;76.81
35848;BME280;22332;51.954;20.118;2023-08-21T00:08:26;100576.17;;;22.85;77.08
35848;BME280;22332;51.954;20.118;2023-08-21T00:11:31;100576.65;;;22.84;76.91
35848;BME280;22332;51.954;20.118;2023-08-21T00:14:37;100573.64;;;22.81;77.08
35848;BME280;22332;51.954;20.118;2023-08-21T00:17:42;100570.05;;;22.78;77.07
35848;BME280;22332;51.954;20.118;2023-08-21T00:20:48;100573.04;;;22.78;77.19
35848;BME280;22332;51.954;20.118;2023-08-21T00:23:54;100573.92;;;22.80;77.17
35848;BME280;22332;51.954;20.118;2023-08-21T00:27:00;100569.48;;;22.81;77.11
35848;BME280;22332;51.954;20.118;2023-08-21T00:30:10;100567.33;;;22.80;77.05
35848;BME280;22332;51.954;20.118;2023-08-21T00:33:16;100567.66;;;22.78;77.15
35848;BME280;22332;51.954;20.118;2023-08-21T00:36:21;100567.89;;;22.77;77.41
35848;BME280;22332;51.954;20.118;2023-08-21T00:39:28;100564.77;;;22.76;77.30
35848;BME280;22332;51.954;20.118;2023-08-21T00:42:33;100565.34;;;22.77;77.39
35848;BME280;22332;51.954;20.118;2023-08-21T00:45:42;100570.05;;;22.78;77.44
35848;BME280;22332;51.954;20.118;2023-08-21T00:48:49;100563.84;;;22.77;77.53
35848;BME280;22332;51.954;20.118;2023-08-21T00:51:55;100564.52;;;22.75;77.54
35848;BME280;22332;51.954;20.118;2023-08-21T00:55:02;100569.00;;;22.71;77.59
35848;BME280;22332;51.954;20.118;2023-08-21T00:58:10;100570.70;;;22.68;77.68
35848;BME280;22332;51.954;20.118;2023-08-21T01:01:19;100572.67;;;22.65;77.87
35848;BME280;22332;51.954;20.118;2023-08-21T01:04:28;100570.51;;;22.62;77.80
35848;BME280;22332;51.954;20.118;2023-08-21T01:07:38;100570.19;;;22.57;78.05
35848;BME280;22332;51.954;20.118;2023-08-21T01:10:54;100579.75;;;22.51;78.18
35848;BME280;22332;51.954;20.118;2023-08-21T01:14:02;100584.12;;;22.44;78.32
35848;BME280;22332;51.954;20.118;2023-08-21T01:17:11;100582.34;;;22.37;78.36
35848;BME280;22332;51.954;20.118;2023-08-21T01:20:19;100581.70;;;22.34;78.39
35848;BME280;22332;51.954;20.118;2023-08-21T01:23:33;100581.63;;;22.33;78.50
35848;BME280;22332;51.954;20.118;2023-08-21T01:26:39;100577.70;;;22.33;78.69
35848;BME280;22332;51.954;20.118;2023-08-21T01:29:46;100575.50;;;22.30;78.52
35848;BME280;22332;51.954;20.118;2023-08-21T01:32:58;100576.98;;;22.29;78.63
35848;BME280;22332;51.954;20.118;2023-08-21T01:36:05;100582.07;;;22.25;78.67
35848;BME280;22332;51.954;20.118;2023-08-21T01:39:11;100586.30;;;22.22;78.51
35848;BME280;22332;51.954;20.118;2023-08-21T01:42:16;100580.55;;;22.18;78.61
35848;BME280;22332;51.954;20.118;2023-08-21T01:45:22;100573.75;;;22.16;78.76
35848;BME280;22332;51.954;20.118;2023-08-21T01:48:29;100572.73;;;22.13;78.79
35848;BME280;22332;51.954;20.118;2023-08-21T01:51:34;100574.95;;;22.08;78.72
35848;BME280;22332;51.954;20.118;2023-08-21T01:54:40;100575.59;;;22.01;78.94
35848;BME280;22332;51.954;20.118;2023-08-21T01:57:46;100574.32;;;21.97;79.18
35848;BME280;22332;51.954;20.118;2023-08-21T02:00:52;100566.48;;;21.95;79.30
35848;BME280;22332;51.954;20.118;2023-08-21T02:03:58;100572.60;;;21.92;79.32
35848;BME280;22332;51.954;20.118;2023-08-21T02:07:04;100578.04;;;21.86;79.26
35848;BME280;22332;51.954;20.118;2023-08-21T02:10:11;100583.80;;;21.82;79.47
35848;BME280;22332;51.954;20.118;2023-08-21T02:13:18;100584.43;;;21.73;79.50
35848;BME280;22332;51.954;20.118;2023-08-21T02:16:24;100582.67;;;21.68;79.53
35848;BME280;22332;51.954;20.118;2023-08-21T02:19:30;100575.98;;;21.66;79.63
35848;BME280;22332;51.954;20.118;2023-08-21T02:22:36;100564.44;;;21.64;79.62
35848;BME280;22332;51.954;20.118;2023-08-21T02:25:41;100565.95;;;21.62;79.66
35848;BME280;22332;51.954;20.118;2023-08-21T02:28:49;100567.11;;;21.59;79.69
35848;BME280;22332;51.954;20.118;2023-08-21T02:31:55;100564.74;;;21.43;79.77
35848;BME280;22332;51.954;20.118;2023-08-21T02:35:01;100562.36;;;21.34;80.06
35848;BME280;22332;51.954;20.118;2023-08-21T02:38:06;100562.54;;;21.32;80.02
35848;BME280;22332;51.954;20.118;2023-08-21T02:41:14;100557.17;;;21.32;80.06
35848;BME280;22332;51.954;20.118;2023-08-21T02:44:19;100559.52;;;21.28;80.05
35848;BME280;22332;51.954;20.118;2023-08-21T02:47:25;100560.95;;;21.24;80.19
35848;BME280;22332;51.954;20.118;2023-08-21T02:50:31;100563.35;;;21.20;80.20
35848;BME280;22332;51.954;20.118;2023-08-21T02:53:39;100565.16;;;21.16;80.23
35848;BME280;22332;51.954;20.118;2023-08-21T02:56:45;100563.41;;;21.13;80.26
35848;BME280;22332;51.954;20.118;2023-08-21T02:59:52;100559.02;;;21.13;80.34
35848;BME280;22332;51.954;20.118;2023-08-21T03:02:58;100557.61;;;21.15;80.55
35848;BME280;22332;51.954;20.118;2023-08-21T03:06:04;100555.30;;;21.18;80.52
35848;BME280;22332;51.954;20.118;2023-08-21T03:09:09;100557.30;;;21.19;80.83
35848;BME280;22332;51.954;20.118;2023-08-21T03:12:15;100558.18;;;21.18;80.70
35848;BME280;22332;51.954;20.118;2023-08-21T03:15:20;100560.30;;;21.18;80.74
35848;BME280;22332;51.954;20.118;2023-08-21T03:18:30;100561.73;;;21.20;80.79
35848;BME280;22332;51.954;20.118;2023-08-21T03:21:36;100559.63;;;21.19;80.79
35848;BME280;22332;51.954;20.118;2023-08-21T03:24:42;100559.80;;;21.18;80.93
35848;BME280;22332;51.954;20.118;2023-08-21T03:27:47;100562.93;;;21.19;80.97
35848;BME280;22332;51.954;20.118;2023-08-21T03:30:55;100560.71;;;21.17;81.01
35848;BME280;22332;51.954;20.118;2023-08-21T03:34:01;100559.14;;;21.15;81.08
35848;BME280;22332;51.954;20.118;2023-08-21T03:37:06;100558.99;;;21.12;81.52
35848;BME280;22332;51.954;20.118;2023-08-21T03:40:13;100561.17;;;21.09;81.66
35848;BME280;22332;51.954;20.118;2023-08-21T03:43:19;100561.61;;;21.05;82.41
35848;BME280;22332;51.954;20.118;2023-08-21T03:46:25;100559.00;;;21.00;83.79
35848;BME280;22332;51.954;20.118;2023-08-21T03:49:32;100556.63;;;20.98;83.21
35848;BME280;22332;51.954;20.118;2023-08-21T03:52:38;100561.55;;;21.02;83.44
35848;BME280;22332;51.954;20.118;2023-08-21T03:55:44;100562.48;;;21.08;83.39
35848;BME280;22332;51.954;20.118;2023-08-21T03:58:49;100569.38;;;21.18;83.25
35848;BME280;22332;51.954;20.118;2023-08-21T04:01:55;100576.24;;;21.30;83.25
35848;BME280;22332;51.954;20.118;2023-08-21T04:05:00;100578.84;;;21.41;83.23
35848;BME280;22332;51.954;20.118;2023-08-21T04:08:07;100583.23;;;21.50;83.37
35848;BME280;22332;51.954;20.118;2023-08-21T04:11:12;100587.03;;;21.57;83.33
35848;BME280;22332;51.954;20.118;2023-08-21T04:14:18;100590.36;;;21.68;83.59
35848;BME280;22332;51.954;20.118;2023-08-21T04:17:24;100595.48;;;21.77;84.20
35848;BME280;22332;51.954;20.118;2023-08-21T04:20:29;100599.91;;;21.76;84.38
35848;BME280;22332;51.954;20.118;2023-08-21T04:23:35;100608.09;;;21.72;84.50
35848;BME280;22332;51.954;20.118;2023-08-21T04:26:40;100609.51;;;21.79;84.65
35848;BME280;22332;51.954;20.118;2023-08-21T04:29:46;100604.79;;;21.84;84.74
35848;BME280;22332;51.954;20.118;2023-08-21T04:32:52;100602.90;;;21.93;84.59
35848;BME280;22332;51.954;20.118;2023-08-21T04:35:58;100606.35;;;21.88;84.78
35848;BME280;22332;51.954;20.118;2023-08-21T04:39:03;100602.71;;;21.76;85.28
35848;BME280;22332;51.954;20.118;2023-08-21T04:42:09;100602.80;;;21.78;85.29
35848;BME280;22332;51.954;20.118;2023-08-21T04:45:15;100599.23;;;21.79;85.42
35848;BME280;22332;51.954;20.118;2023-08-21T04:48:22;100604.92;;;21.83;85.27
35848;BME280;22332;51.954;20.118;2023-08-21T04:51:28;100603.92;;;21.84;85.48
35848;BME280;22332;51.954;20.118;2023-08-21T04:54:35;100594.48;;;21.76;85.89
35848;BME280;22332;51.954;20.118;2023-08-21T04:57:41;100587.14;;;21.67;85.98
35848;BME280;22332;51.954;20.118;2023-08-21T05:00:47;100587.08;;;21.74;85.74
35848;BME280;22332;51.954;20.118;2023-08-21T05:03:53;100588.80;;;21.94;85.83
35848;BME280;22332;51.954;20.118;2023-08-21T05:06:59;100587.80;;;22.18;85.33
35848;BME280;22332;51.954;20.118;2023-08-21T05:10:07;100586.00;;;22.45;85.16
35848;BME280;22332;51.954;20.118;2023-08-21T05:13:13;100592.17;;;22.63;84.75
35848;BME280;22332;51.954;20.118;2023-08-21T05:16:21;100603.63;;;22.43;85.18
35848;BME280;22332;51.954;20.118;2023-08-21T05:19:27;100611.20;;;22.19;86.20
35848;BME280;22332;51.954;20.118;2023-08-21T05:22:32;100619.27;;;21.89;86.71
35848;BME280;22332;51.954;20.118;2023-08-21T05:25:38;100620.80;;;21.80;87.09
35848;BME280;22332;51.954;20.118;2023-08-21T05:28:44;100617.16;;;21.72;87.51
35848;BME280;22332;51.954;20.118;2023-08-21T05:31:49;100634.38;;;21.74;87.70
35848;BME280;22332;51.954;20.118;2023-08-21T05:34:55;100637.86;;;21.60;88.58
35848;BME280;22332;51.954;20.118;2023-08-21T05:38:01;100637.13;;;21.47;88.32
35848;BME280;22332;51.954;20.118;2023-08-21T05:41:06;100652.21;;;21.38;90.22
35848;BME280;22332;51.954;20.118;2023-08-21T05:44:12;100669.92;;;21.29;90.66
35848;BME280;22332;51.954;20.118;2023-08-21T05:47:18;100683.89;;;21.28;90.99
35848;BME280;22332;51.954;20.118;2023-08-21T05:50:23;100700.58;;;21.28;92.84
35848;BME280;22332;51.954;20.118;2023-08-21T05:53:29;100704.31;;;21.12;93.79
35848;BME280;22332;51.954;20.118;2023-08-21T05:56:34;100700.02;;;21.02;93.71
35848;BME280;22332;51.954;20.118;2023-08-21T05:59:44;100708.39;;;20.98;93.60
35848;BME280;22332;51.954;20.118;2023-08-21T06:02:50;100721.65;;;21.05;94.07
35848;BME280;22332;51.954;20.118;2023-08-21T06:06:12;100739.78;;;21.21;92.27
35848;BME280;22332;51.954;20.118;2023-08-21T06:09:18;100761.23;;;21.56;91.48
35848;BME280;22332;51.954;20.118;2023-08-21T06:12:24;100770.04;;;21.61;92.29
35848;BME280;22332;51.954;20.118;2023-08-21T06:15:31;100775.62;;;21.52;92.56
35848;BME280;22332;51.954;20.118;2023-08-21T06:18:37;100774.59;;;21.44;91.81
35848;BME280;22332;51.954;20.118;2023-08-21T06:21:43;100771.89;;;21.60;91.31
35848;BME280;22332;51.954;20.118;2023-08-21T06:24:49;100783.05;;;21.94;90.32
35848;BME280;22332;51.954;20.118;2023-08-21T06:27:55;100783.08;;;22.19;89.67
35848;BME280;22332;51.954;20.118;2023-08-21T06:31:00;100798.39;;;22.39;89.02
35848;BME280;22332;51.954;20.118;2023-08-21T06:34:08;100800.63;;;22.55;88.87
35848;BME280;22332;51.954;20.118;2023-08-21T06:37:14;100793.38;;;22.68;88.42
35848;BME280;22332;51.954;20.118;2023-08-21T06:40:20;100790.92;;;22.80;88.08
35848;BME280;22332;51.954;20.118;2023-08-21T06:43:26;100781.23;;;22.93;87.84
35848;BME280;22332;51.954;20.118;2023-08-21T06:46:34;100770.48;;;23.03;87.76
35848;BME280;22332;51.954;20.118;2023-08-21T06:49:41;100760.68;;;23.18;87.65
35848;BME280;22332;51.954;20.118;2023-08-21T06:52:47;100748.37;;;23.32;87.27
35848;BME280;22332;51.954;20.118;2023-08-21T06:55:52;100736.73;;;23.34;86.69
35848;BME280;22332;51.954;20.118;2023-08-21T06:58:58;100727.73;;;23.34;86.80
35848;BME280;22332;51.954;20.118;2023-08-21T07:02:04;100726.86;;;23.47;86.73
35848;BME280;22332;51.954;20.118;2023-08-21T07:05:10;100732.20;;;23.64;86.49
35848;BME280;22332;51.954;20.118;2023-08-21T07:08:15;100742.47;;;23.87;86.16
35848;BME280;22332;51.954;20.118;2023-08-21T07:11:21;100747.80;;;24.04;85.83
35848;BME280;22332;51.954;20.118;2023-08-21T07:14:27;100755.14;;;24.16;85.46
35848;BME280;22332;51.954;20.118;2023-08-21T07:17:32;100750.41;;;24.29;85.29
35848;BME280;22332;51.954;20.118;2023-08-21T07:20:38;100747.66;;;24.49;84.97
35848;BME280;22332;51.954;20.118;2023-08-21T07:23:44;100748.80;;;24.61;84.69
35848;BME280;22332;51.954;20.118;2023-08-21T07:26:49;100744.44;;;24.68;84.37
35848;BME280;22332;51.954;20.118;2023-08-21T07:29:55;100736.46;;;24.61;84.42
35848;BME280;22332;51.954;20.118;2023-08-21T07:33:00;100736.90;;;24.61;84.54
35848;BME280;22332;51.954;20.118;2023-08-21T07:36:07;100732.23;;;24.70;84.38
35848;BME280;22332;51.954;20.118;2023-08-21T07:39:12;100726.55;;;24.80;84.03
35848;BME280;22332;51.954;20.118;2023-08-21T07:42:18;100724.50;;;24.76;82.93
35848;BME280;22332;51.954;20.118;2023-08-21T07:45:23;100727.09;;;24.47;83.12
35848;BME280;22332;51.954;20.118;2023-08-21T07:48:29;100726.38;;;24.21;83.99
35848;BME280;22332;51.954;20.118;2023-08-21T07:51:35;100713.00;;;24.20;84.60
35848;BME280;22332;51.954;20.118;2023-08-21T07:54:40;100710.83;;;24.39;84.27
35848;BME280;22332;51.954;20.118;2023-08-21T07:57:46;100715.95;;;24.30;82.90
35848;BME280;22332;51.954;20.118;2023-08-21T08:00:52;100709.96;;;24.14;83.91
35848;BME280;22332;51.954;20.118;2023-08-21T08:03:58;100712.23;;;24.29;83.76
35848;BME280;22332;51.954;20.118;2023-08-21T08:07:05;100713.02;;;23.98;84.51
35848;BME280;22332;51.954;20.118;2023-08-21T08:10:10;100705.02;;;23.76;86.02
35848;BME280;22332;51.954;20.118;2023-08-21T08:13:16;100705.19;;;23.77;86.17
35848;BME280;22332;51.954;20.118;2023-08-21T08:16:21;100709.79;;;23.63;86.70
35848;BME280;22332;51.954;20.118;2023-08-21T08:19:27;100704.17;;;23.52;87.18
35848;BME280;22332;51.954;20.118;2023-08-21T08:22:33;100698.85;;;23.50;87.20
35848;BME280;22332;51.954;20.118;2023-08-21T08:25:38;100695.28;;;23.61;87.25
35848;BME280;22332;51.954;20.118;2023-08-21T08:28:44;100703.17;;;23.66;87.78
35848;BME280;22332;51.954;20.118;2023-08-21T08:31:49;100701.48;;;23.57;87.83
35848;BME280;22332;51.954;20.118;2023-08-21T08:34:55;100699.40;;;23.70;87.75
35848;BME280;22332;51.954;20.118;2023-08-21T08:38:01;100708.31;;;23.71;87.27
35848;BME280;22332;51.954;20.118;2023-08-21T08:41:14;100705.64;;;23.72;86.31
35848;BME280;22332;51.954;20.118;2023-08-21T08:44:25;100700.23;;;23.76;85.99
35848;BME280;22332;51.954;20.118;2023-08-21T08:47:35;100700.23;;;23.70;84.37
35848;BME280;22332;51.954;20.118;2023-08-21T08:50:41;100697.27;;;23.65;85.66
35848;BME280;22332;51.954;20.118;2023-08-21T08:53:48;100686.52;;;23.67;85.64
35848;BME280;22332;51.954;20.118;2023-08-21T08:56:54;100689.71;;;23.81;85.02
35848;BME280;22332;51.954;20.118;2023-08-21T09:00:00;100695.73;;;23.82;84.79
35848;BME280;22332;51.954;20.118;2023-08-21T09:03:06;100690.27;;;23.88;85.34
35848;BME280;22332;51.954;20.118;2023-08-21T09:06:13;100696.40;;;24.08;84.20
35848;BME280;22332;51.954;20.118;2023-08-21T09:09:18;100693.73;;;24.21;84.35
35848;BME280;22332;51.954;20.118;2023-08-21T09:12:24;100695.70;;;24.32;83.26
35848;BME280;22332;51.954;20.118;2023-08-21T09:15:30;100692.73;;;24.31;82.38
35848;BME280;22332;51.954;20.118;2023-08-21T09:18:37;100692.16;;;24.36;83.27
35848;BME280;22332;51.954;20.118;2023-08-21T09:21:44;100700.42;;;24.47;82.03
35848;BME280;22332;51.954;20.118;2023-08-21T09:25:03;100704.88;;;24.51;81.58
35848;BME280;22332;51.954;20.118;2023-08-21T09:28:09;100707.71;;;24.52;81.16
35848;BME280;22332;51.954;20.118;2023-08-21T09:31:15;100707.88;;;24.59;81.44
35848;BME280;22332;51.954;20.118;2023-08-21T09:34:21;100703.04;;;24.64;79.23
35848;BME280;22332;51.954;20.118;2023-08-21T09:37:30;100696.99;;;24.66;77.03
35848;BME280;22332;51.954;20.118;2023-08-21T09:40:36;100693.12;;;24.69;77.15
35848;BME280;22332;51.954;20.118;2023-08-21T09:43:44;100691.11;;;24.74;77.15
35848;BME280;22332;51.954;20.118;2023-08-21T09:46:50;100695.61;;;24.71;72.75
35848;BME280;22332;51.954;20.118;2023-08-21T09:49:56;100693.77;;;24.71;72.65
35848;BME280;22332;51.954;20.118;2023-08-21T09:53:02;100695.89;;;24.72;70.01
35848;BME280;22332;51.954;20.118;2023-08-21T09:56:08;100687.53;;;24.75;72.62
35848;BME280;22332;51.954;20.118;2023-08-21T09:59:15;100685.86;;;24.79;71.89
35848;BME280;22332;51.954;20.118;2023-08-21T10:02:21;100680.88;;;24.80;72.14
35848;BME280;22332;51.954;20.118;2023-08-21T10:05:29;100683.15;;;24.89;71.81
35848;BME280;22332;51.954;20.118;2023-08-21T10:08:38;100687.27;;;24.94;69.12
35848;BME280;22332;51.954;20.118;2023-08-21T10:11:45;100687.55;;;24.99;67.89
35848;BME280;22332;51.954;20.118;2023-08-21T10:14:51;100687.38;;;25.04;68.17
35848;BME280;22332;51.954;20.118;2023-08-21T10:17:58;100688.77;;;25.10;68.68
35848;BME280;22332;51.954;20.118;2023-08-21T10:21:14;100690.38;;;25.17;64.21
35848;BME280;22332;51.954;20.118;2023-08-21T10:24:33;100684.45;;;25.15;63.84
35848;BME280;22332;51.954;20.118;2023-08-21T10:27:39;100679.14;;;25.15;64.49
35848;BME280;22332;51.954;20.118;2023-08-21T10:30:46;100674.98;;;25.23;65.87
35848;BME280;22332;51.954;20.118;2023-08-21T10:33:52;100675.77;;;25.35;65.94
35848;BME280;22332;51.954;20.118;2023-08-21T10:37:08;100672.39;;;25.42;65.13
35848;BME280;22332;51.954;20.118;2023-08-21T10:40:24;100675.80;;;25.46;63.30
